QFA904 YSSY-YBSU
Flight info
| Callsign | QFA904 |
|---|---|
| Flight time | 1h 19m |
| Altitude | 37000 |
| Route | TESAT H252 OLSEM Y193 BANDA H252 GOMOL Q69 SU |
| Aircraft | B738/M-SDE2E3FGHIRWXY/LB1 |
Departure
| Time | 2026-04-25 00:51 |
|---|---|
| Airport | Sydney Kingsford Smith International Airport (YSSY) |
Arrival
| Time | 2026-04-25 02:10 |
|---|---|
| Airport | Sunshine Coast Airport (YBSU) |
| Time | Latitude | Longitude | Altitude | Speed | Heading |
|---|---|---|---|---|---|
| 2026-04-25 00:02 | -33.93141 | 151.17801 | 29 ft | 0 kts | 191° |
| 2026-04-25 00:33 | -33.93135 | 151.17802 | 29 ft | 2 kts | 191° |
| 2026-04-25 00:34 | -33.93116 | 151.17807 | 29 ft | 3 kts | 191° |
| 2026-04-25 00:34 | -33.93103 | 151.17810 | 29 ft | 3 kts | 191° |
| 2026-04-25 00:34 | -33.93084 | 151.17815 | 29 ft | 3 kts | 210° |
| 2026-04-25 00:34 | -33.93071 | 151.17829 | 29 ft | 3 kts | 248° |
| 2026-04-25 00:35 | -33.93068 | 151.17847 | 29 ft | 1 kts | 279° |
| 2026-04-25 00:35 | -33.93071 | 151.17864 | 29 ft | 3 kts | 280° |
| 2026-04-25 00:35 | -33.93074 | 151.17887 | 29 ft | 3 kts | 280° |
| 2026-04-25 00:35 | -33.93075 | 151.17895 | 29 ft | 0 kts | 280° |
| 2026-04-25 00:38 | -33.93074 | 151.17884 | 29 ft | 5 kts | 280° |
| 2026-04-25 00:38 | -33.93066 | 151.17828 | 29 ft | 10 kts | 279° |
| 2026-04-25 00:38 | -33.93044 | 151.17732 | 29 ft | 13 kts | 296° |
| 2026-04-25 00:39 | -33.93011 | 151.17630 | 29 ft | 13 kts | 282° |
| 2026-04-25 00:39 | -33.93044 | 151.17541 | 29 ft | 13 kts | 209° |
| 2026-04-25 00:39 | -33.93128 | 151.17526 | 29 ft | 12 kts | 168° |
| 2026-04-25 00:39 | -33.93214 | 151.17549 | 29 ft | 13 kts | 168° |
| 2026-04-25 00:40 | -33.93318 | 151.17576 | 29 ft | 17 kts | 168° |
| 2026-04-25 00:40 | -33.93449 | 151.17587 | 29 ft | 19 kts | 185° |
| 2026-04-25 00:40 | -33.93579 | 151.17609 | 29 ft | 19 kts | 168° |
| 2026-04-25 00:40 | -33.93697 | 151.17669 | 29 ft | 18 kts | 155° |
| 2026-04-25 00:41 | -33.93814 | 151.17706 | 29 ft | 17 kts | 160° |
| 2026-04-25 00:41 | -33.93907 | 151.17780 | 29 ft | 16 kts | 164° |
| 2026-04-25 00:41 | -33.94022 | 151.17811 | 28 ft | 19 kts | 168° |
| 2026-04-25 00:41 | -33.94154 | 151.17844 | 29 ft | 19 kts | 168° |
| 2026-04-25 00:42 | -33.94284 | 151.17878 | 29 ft | 20 kts | 167° |
| 2026-04-25 00:42 | -33.94421 | 151.17911 | 29 ft | 20 kts | 176° |
| 2026-04-25 00:42 | -33.94540 | 151.17886 | 29 ft | 17 kts | 169° |
| 2026-04-25 00:42 | -33.94657 | 151.17916 | 29 ft | 18 kts | 168° |
| 2026-04-25 00:43 | -33.94789 | 151.17951 | 29 ft | 21 kts | 168° |
| 2026-04-25 00:43 | -33.94937 | 151.17989 | 29 ft | 21 kts | 168° |
| 2026-04-25 00:43 | -33.95048 | 151.18018 | 29 ft | 11 kts | 168° |
| 2026-04-25 00:43 | -33.95101 | 151.18078 | 29 ft | 13 kts | 98° |
| 2026-04-25 00:44 | -33.95084 | 151.18192 | 29 ft | 15 kts | 78° |
| 2026-04-25 00:44 | -33.95062 | 151.18309 | 29 ft | 14 kts | 78° |
| 2026-04-25 00:44 | -33.95049 | 151.18385 | 29 ft | 4 kts | 78° |
| 2026-04-25 00:44 | -33.95044 | 151.18416 | 29 ft | 5 kts | 78° |
| 2026-04-25 00:45 | -33.95060 | 151.18494 | 29 ft | 13 kts | 135° |
| 2026-04-25 00:45 | -33.95139 | 151.18569 | 29 ft | 16 kts | 138° |
| 2026-04-25 00:45 | -33.95233 | 151.18669 | 29 ft | 20 kts | 144° |
| 2026-04-25 00:45 | -33.95357 | 151.18729 | 29 ft | 19 kts | 167° |
| 2026-04-25 00:46 | -33.95486 | 151.18763 | 29 ft | 19 kts | 168° |
| 2026-04-25 00:46 | -33.95624 | 151.18798 | 29 ft | 20 kts | 168° |
| 2026-04-25 00:46 | -33.95891 | 151.18868 | 29 ft | 19 kts | 168° |
| 2026-04-25 00:47 | -33.96019 | 151.18901 | 29 ft | 18 kts | 167° |
| 2026-04-25 00:47 | -33.96141 | 151.18934 | 29 ft | 18 kts | 168° |
| 2026-04-25 00:47 | -33.96260 | 151.18964 | 29 ft | 17 kts | 168° |
| 2026-04-25 00:47 | -33.96378 | 151.18994 | 29 ft | 19 kts | 168° |
| 2026-04-25 00:48 | -33.96521 | 151.19031 | 29 ft | 23 kts | 168° |
| 2026-04-25 00:48 | -33.96682 | 151.19072 | 29 ft | 23 kts | 171° |
| 2026-04-25 00:48 | -33.96840 | 151.19069 | 29 ft | 23 kts | 168° |
| 2026-04-25 00:48 | -33.96989 | 151.19107 | 29 ft | 20 kts | 168° |
| 2026-04-25 00:49 | -33.97093 | 151.19137 | 29 ft | 13 kts | 156° |
| 2026-04-25 00:49 | -33.97122 | 151.19222 | 29 ft | 10 kts | 81° |
| 2026-04-25 00:49 | -33.97106 | 151.19312 | 29 ft | 12 kts | 78° |
| 2026-04-25 00:49 | -33.97092 | 151.19364 | 29 ft | 5 kts | 51° |
| 2026-04-25 00:50 | -33.97056 | 151.19370 | 26 ft | 6 kts | 352° |
| 2026-04-25 00:50 | -33.96970 | 151.19348 | 24 ft | 35 kts | 347° |
| 2026-04-25 00:50 | -33.96412 | 151.19203 | 24 ft | 128 kts | 347° |
| 2026-04-25 00:50 | -33.95285 | 151.18917 | 224 ft | 190 kts | 348° |
| 2026-04-25 00:51 | -33.93949 | 151.18644 | 1096 ft | 200 kts | 355° |
| 2026-04-25 00:51 | -33.92556 | 151.18840 | 1608 ft | 205 kts | 20° |
| 2026-04-25 00:51 | -33.91401 | 151.19829 | 2260 ft | 206 kts | 44° |
| 2026-04-25 00:51 | -33.90348 | 151.20982 | 3018 ft | 204 kts | 39° |
| 2026-04-25 00:52 | -33.89257 | 151.22114 | 3556 ft | 215 kts | 40° |
| 2026-04-25 00:52 | -33.88091 | 151.23338 | 4062 ft | 230 kts | 41° |
| 2026-04-25 00:52 | -33.86827 | 151.24680 | 4433 ft | 256 kts | 41° |
| 2026-04-25 00:52 | -33.85452 | 151.26168 | 5024 ft | 271 kts | 43° |
| 2026-04-25 00:53 | -33.84090 | 151.27753 | 5852 ft | 274 kts | 44° |
| 2026-04-25 00:53 | -33.82720 | 151.29402 | 6363 ft | 283 kts | 49° |
| 2026-04-25 00:53 | -33.81624 | 151.31348 | 7121 ft | 278 kts | 64° |
| 2026-04-25 00:53 | -33.80957 | 151.33495 | 7709 ft | 281 kts | 73° |
| 2026-04-25 00:54 | -33.80400 | 151.35766 | 8271 ft | 283 kts | 74° |
| 2026-04-25 00:54 | -33.79801 | 151.38025 | 9127 ft | 284 kts | 69° |
| 2026-04-25 00:54 | -33.78743 | 151.40042 | 10031 ft | 288 kts | 52° |
| 2026-04-25 00:54 | -33.77441 | 151.41945 | 10566 ft | 305 kts | 51° |
| 2026-04-25 00:55 | -33.76029 | 151.43993 | 10812 ft | 328 kts | 51° |
| 2026-04-25 00:55 | -33.74553 | 151.46141 | 11445 ft | 337 kts | 52° |
| 2026-04-25 00:55 | -33.73059 | 151.48324 | 12256 ft | 339 kts | 52° |
| 2026-04-25 00:55 | -33.71561 | 151.50523 | 13098 ft | 341 kts | 52° |
| 2026-04-25 00:56 | -33.70076 | 151.52709 | 13897 ft | 344 kts | 52° |
| 2026-04-25 00:56 | -33.68555 | 151.54951 | 14645 ft | 347 kts | 52° |
| 2026-04-25 00:56 | -33.67018 | 151.57215 | 15358 ft | 351 kts | 52° |
| 2026-04-25 00:56 | -33.65467 | 151.59495 | 16063 ft | 354 kts | 52° |
| 2026-04-25 00:57 | -33.63670 | 151.61546 | 16756 ft | 361 kts | 37° |
| 2026-04-25 00:57 | -33.61559 | 151.63213 | 17474 ft | 364 kts | 34° |
| 2026-04-25 00:57 | -33.59411 | 151.64842 | 18171 ft | 368 kts | 34° |
| 2026-04-25 00:57 | -33.57243 | 151.66502 | 18846 ft | 371 kts | 34° |
| 2026-04-25 00:58 | -33.55070 | 151.68197 | 19436 ft | 374 kts | 35° |
| 2026-04-25 00:58 | -33.52881 | 151.69923 | 20013 ft | 378 kts | 36° |
| 2026-04-25 00:58 | -33.50665 | 151.71646 | 20584 ft | 382 kts | 32° |
| 2026-04-25 00:58 | -33.48247 | 151.73039 | 21144 ft | 389 kts | 22° |
| 2026-04-25 00:59 | -33.45626 | 151.73946 | 21701 ft | 394 kts | 16° |
| 2026-04-25 00:59 | -33.42947 | 151.74734 | 22240 ft | 399 kts | 16° |
| 2026-04-25 00:59 | -33.40242 | 151.75547 | 22767 ft | 403 kts | 17° |
| 2026-04-25 00:59 | -33.37552 | 151.76382 | 23281 ft | 406 kts | 17° |
| 2026-04-25 01:00 | -33.34803 | 151.77258 | 23800 ft | 410 kts | 18° |
| 2026-04-25 01:00 | -33.32038 | 151.78151 | 24271 ft | 414 kts | 18° |
| 2026-04-25 01:00 | -33.29248 | 151.79057 | 24698 ft | 417 kts | 18° |
| 2026-04-25 01:00 | -33.26433 | 151.79970 | 25118 ft | 420 kts | 18° |
| 2026-04-25 01:01 | -33.23596 | 151.80889 | 25535 ft | 424 kts | 18° |
| 2026-04-25 01:01 | -33.20734 | 151.81815 | 25942 ft | 427 kts | 18° |
| 2026-04-25 01:01 | -33.17846 | 151.82746 | 26347 ft | 430 kts | 18° |
| 2026-04-25 01:01 | -33.14978 | 151.83671 | 26736 ft | 433 kts | 18° |
| 2026-04-25 01:02 | -33.12054 | 151.84612 | 27113 ft | 437 kts | 18° |
| 2026-04-25 01:02 | -33.09107 | 151.85560 | 27493 ft | 440 kts | 18° |
| 2026-04-25 01:02 | -33.06142 | 151.86512 | 27866 ft | 443 kts | 18° |
| 2026-04-25 01:02 | -33.03153 | 151.87472 | 28233 ft | 446 kts | 18° |
| 2026-04-25 01:03 | -33.00143 | 151.88437 | 28584 ft | 449 kts | 18° |
| 2026-04-25 01:03 | -32.97111 | 151.89410 | 28933 ft | 452 kts | 18° |
| 2026-04-25 01:03 | -32.94059 | 151.90387 | 29272 ft | 455 kts | 18° |
| 2026-04-25 01:03 | -32.90987 | 151.91371 | 29596 ft | 459 kts | 19° |
| 2026-04-25 01:04 | -32.87897 | 151.92360 | 29923 ft | 462 kts | 19° |
| 2026-04-25 01:04 | -32.84780 | 151.93356 | 30246 ft | 465 kts | 19° |
| 2026-04-25 01:04 | -32.81649 | 151.94356 | 30555 ft | 467 kts | 19° |
| 2026-04-25 01:04 | -32.78497 | 151.95362 | 30820 ft | 470 kts | 19° |
| 2026-04-25 01:05 | -32.75325 | 151.96374 | 31081 ft | 472 kts | 19° |
| 2026-04-25 01:05 | -32.72147 | 151.97387 | 31343 ft | 475 kts | 19° |
| 2026-04-25 01:05 | -32.68990 | 151.98392 | 31602 ft | 476 kts | 19° |
| 2026-04-25 01:05 | -32.65779 | 151.99413 | 31925 ft | 477 kts | 19° |
| 2026-04-25 01:06 | -32.62581 | 152.00429 | 32325 ft | 475 kts | 19° |
| 2026-04-25 01:06 | -32.59377 | 152.01446 | 32697 ft | 474 kts | 18° |
| 2026-04-25 01:06 | -32.56195 | 152.02456 | 33004 ft | 475 kts | 18° |
| 2026-04-25 01:06 | -32.52994 | 152.03472 | 33289 ft | 476 kts | 18° |
| 2026-04-25 01:07 | -32.49791 | 152.04488 | 33613 ft | 476 kts | 18° |
| 2026-04-25 01:07 | -32.46640 | 152.05487 | 33952 ft | 475 kts | 18° |
| 2026-04-25 01:07 | -32.43446 | 152.06498 | 34286 ft | 475 kts | 18° |
| 2026-04-25 01:07 | -32.40251 | 152.07510 | 34568 ft | 475 kts | 18° |
| 2026-04-25 01:08 | -32.37049 | 152.08522 | 34806 ft | 476 kts | 18° |
| 2026-04-25 01:08 | -32.33842 | 152.09536 | 35052 ft | 476 kts | 18° |
| 2026-04-25 01:08 | -32.30628 | 152.10550 | 35314 ft | 476 kts | 18° |
| 2026-04-25 01:08 | -32.27426 | 152.11560 | 35560 ft | 476 kts | 18° |
| 2026-04-25 01:09 | -32.24224 | 152.12570 | 35818 ft | 476 kts | 18° |
| 2026-04-25 01:09 | -32.21027 | 152.13577 | 36099 ft | 475 kts | 18° |
| 2026-04-25 01:09 | -32.17862 | 152.14573 | 36281 ft | 477 kts | 18° |
| 2026-04-25 01:09 | -32.14642 | 152.15587 | 36473 ft | 478 kts | 18° |
| 2026-04-25 01:10 | -32.11431 | 152.16596 | 36724 ft | 478 kts | 18° |
| 2026-04-25 01:10 | -32.08225 | 152.17603 | 37010 ft | 476 kts | 18° |
| 2026-04-25 01:10 | -32.05024 | 152.18607 | 37266 ft | 476 kts | 18° |
| 2026-04-25 01:10 | -32.01815 | 152.19613 | 37451 ft | 477 kts | 18° |
| 2026-04-25 01:11 | -31.98591 | 152.20625 | 37445 ft | 481 kts | 18° |
| 2026-04-25 01:11 | -31.92062 | 152.22672 | 37460 ft | 489 kts | 18° |
| 2026-04-25 01:12 | -31.85497 | 152.24725 | 37461 ft | 493 kts | 18° |
| 2026-04-25 01:12 | -31.78857 | 152.26796 | 37456 ft | 493 kts | 18° |
| 2026-04-25 01:13 | -31.72278 | 152.28842 | 37444 ft | 484 kts | 18° |
| 2026-04-25 01:13 | -31.65755 | 152.30873 | 37458 ft | 484 kts | 18° |
| 2026-04-25 01:14 | -31.59226 | 152.32903 | 37449 ft | 485 kts | 18° |
| 2026-04-25 01:14 | -31.52732 | 152.34920 | 37450 ft | 485 kts | 18° |
| 2026-04-25 01:15 | -31.46187 | 152.36948 | 37460 ft | 486 kts | 18° |
| 2026-04-25 01:15 | -31.39642 | 152.38974 | 37461 ft | 487 kts | 18° |
| 2026-04-25 01:16 | -31.33084 | 152.41001 | 37451 ft | 488 kts | 18° |
| 2026-04-25 01:16 | -31.26505 | 152.43031 | 37444 ft | 489 kts | 18° |
| 2026-04-25 01:17 | -31.19924 | 152.45058 | 37455 ft | 489 kts | 18° |
| 2026-04-25 01:17 | -31.13330 | 152.47087 | 37460 ft | 490 kts | 18° |
| 2026-04-25 01:18 | -31.06775 | 152.49101 | 37435 ft | 490 kts | 18° |
| 2026-04-25 01:18 | -31.00203 | 152.51117 | 37444 ft | 488 kts | 18° |
| 2026-04-25 01:19 | -30.93643 | 152.53127 | 37450 ft | 487 kts | 18° |
| 2026-04-25 01:19 | -30.87093 | 152.55132 | 37451 ft | 486 kts | 18° |
| 2026-04-25 01:20 | -30.80564 | 152.57127 | 37456 ft | 485 kts | 18° |
| 2026-04-25 01:20 | -30.75168 | 152.58922 | 37441 ft | 484 kts | 20° |
| 2026-04-25 01:21 | -30.68767 | 152.61303 | 37440 ft | 483 kts | 21° |
| 2026-04-25 01:21 | -30.62360 | 152.63695 | 37444 ft | 483 kts | 20° |
| 2026-04-25 01:22 | -30.55948 | 152.66041 | 37430 ft | 483 kts | 20° |
| 2026-04-25 01:22 | -30.49526 | 152.68366 | 37435 ft | 483 kts | 20° |
| 2026-04-25 01:23 | -30.43108 | 152.70684 | 37431 ft | 483 kts | 20° |
| 2026-04-25 01:23 | -30.36680 | 152.73004 | 37433 ft | 483 kts | 20° |
| 2026-04-25 01:24 | -30.30277 | 152.75314 | 37428 ft | 483 kts | 20° |
| 2026-04-25 01:24 | -30.23897 | 152.77612 | 37426 ft | 483 kts | 20° |
| 2026-04-25 01:25 | -30.17488 | 152.79917 | 37425 ft | 482 kts | 20° |
| 2026-04-25 01:25 | -30.11073 | 152.82222 | 37416 ft | 482 kts | 20° |
| 2026-04-25 01:26 | -30.04673 | 152.84518 | 37408 ft | 482 kts | 20° |
| 2026-04-25 01:26 | -29.98265 | 152.86814 | 37414 ft | 482 kts | 20° |
| 2026-04-25 01:27 | -29.91866 | 152.89104 | 37405 ft | 481 kts | 20° |
| 2026-04-25 01:27 | -29.85468 | 152.91379 | 37404 ft | 481 kts | 19° |
| 2026-04-25 01:28 | -29.75894 | 152.94767 | 37399 ft | 481 kts | 19° |
| 2026-04-25 01:28 | -29.69503 | 152.97028 | 37396 ft | 480 kts | 19° |
| 2026-04-25 01:29 | -29.63114 | 152.99286 | 37393 ft | 480 kts | 19° |
| 2026-04-25 01:29 | -29.56729 | 153.01540 | 37394 ft | 480 kts | 19° |
| 2026-04-25 01:30 | -29.50371 | 153.03781 | 37389 ft | 480 kts | 19° |
| 2026-04-25 01:30 | -29.43989 | 153.06028 | 37388 ft | 479 kts | 19° |
| 2026-04-25 01:31 | -29.37609 | 153.08271 | 37384 ft | 479 kts | 19° |
| 2026-04-25 01:31 | -29.31233 | 153.10510 | 37374 ft | 479 kts | 19° |
| 2026-04-25 01:32 | -29.24856 | 153.12750 | 37374 ft | 479 kts | 19° |
| 2026-04-25 01:32 | -29.18487 | 153.14993 | 37376 ft | 479 kts | 19° |
| 2026-04-25 01:33 | -29.12121 | 153.17234 | 37374 ft | 479 kts | 19° |
| 2026-04-25 01:33 | -29.05755 | 153.19472 | 37364 ft | 478 kts | 19° |
| 2026-04-25 01:34 | -28.99388 | 153.21706 | 37369 ft | 479 kts | 19° |
| 2026-04-25 01:34 | -28.93059 | 153.23924 | 37366 ft | 479 kts | 19° |
| 2026-04-25 01:35 | -28.86684 | 153.26156 | 37369 ft | 479 kts | 19° |
| 2026-04-25 01:35 | -28.80310 | 153.28384 | 37358 ft | 479 kts | 18° |
| 2026-04-25 01:36 | -28.73900 | 153.30621 | 37361 ft | 480 kts | 18° |
| 2026-04-25 01:36 | -28.67512 | 153.32849 | 37366 ft | 480 kts | 18° |
| 2026-04-25 01:37 | -28.61166 | 153.35059 | 37348 ft | 476 kts | 18° |
| 2026-04-25 01:37 | -28.54867 | 153.37249 | 37357 ft | 470 kts | 18° |
| 2026-04-25 01:38 | -28.48633 | 153.39415 | 37161 ft | 468 kts | 18° |
| 2026-04-25 01:38 | -28.45526 | 153.40493 | 36816 ft | 464 kts | 18° |
| 2026-04-25 01:38 | -28.42459 | 153.41557 | 36426 ft | 459 kts | 18° |
| 2026-04-25 01:39 | -28.39418 | 153.42610 | 36040 ft | 455 kts | 18° |
| 2026-04-25 01:39 | -28.36405 | 153.43654 | 35642 ft | 451 kts | 18° |
| 2026-04-25 01:39 | -28.33413 | 153.44690 | 35250 ft | 448 kts | 18° |
| 2026-04-25 01:39 | -28.30484 | 153.45704 | 34859 ft | 445 kts | 18° |
| 2026-04-25 01:40 | -28.27531 | 153.46726 | 34475 ft | 442 kts | 18° |
| 2026-04-25 01:40 | -28.24603 | 153.47739 | 34036 ft | 439 kts | 18° |
| 2026-04-25 01:40 | -28.21683 | 153.48747 | 33602 ft | 436 kts | 18° |
| 2026-04-25 01:40 | -28.18782 | 153.49735 | 33194 ft | 432 kts | 15° |
| 2026-04-25 01:41 | -28.15842 | 153.50375 | 32855 ft | 428 kts | 6° |
| 2026-04-25 01:41 | -28.12889 | 153.50483 | 32567 ft | 421 kts | 0° |
| 2026-04-25 01:41 | -28.09976 | 153.50436 | 32301 ft | 415 kts | 359° |
| 2026-04-25 01:41 | -28.07110 | 153.50369 | 32027 ft | 409 kts | 359° |
| 2026-04-25 01:42 | -28.04276 | 153.50304 | 31676 ft | 406 kts | 360° |
| 2026-04-25 01:42 | -28.01464 | 153.50250 | 31315 ft | 403 kts | 0° |
| 2026-04-25 01:42 | -27.98705 | 153.50206 | 30965 ft | 400 kts | 0° |
| 2026-04-25 01:42 | -27.95935 | 153.50170 | 30609 ft | 397 kts | 0° |
| 2026-04-25 01:43 | -27.93181 | 153.50138 | 30226 ft | 394 kts | 1° |
| 2026-04-25 01:43 | -27.90440 | 153.50107 | 29823 ft | 391 kts | 1° |
| 2026-04-25 01:43 | -27.87730 | 153.50078 | 29441 ft | 387 kts | 0° |
| 2026-04-25 01:43 | -27.85043 | 153.50049 | 28790 ft | 390 kts | 0° |
| 2026-04-25 01:44 | -27.82310 | 153.50020 | 28287 ft | 390 kts | 0° |
| 2026-04-25 01:44 | -27.79589 | 153.49991 | 27807 ft | 390 kts | 0° |
| 2026-04-25 01:44 | -27.76883 | 153.49961 | 27415 ft | 387 kts | 0° |
| 2026-04-25 01:44 | -27.74203 | 153.49931 | 27033 ft | 384 kts | 0° |
| 2026-04-25 01:45 | -27.71573 | 153.49903 | 26664 ft | 381 kts | 0° |
| 2026-04-25 01:45 | -27.68926 | 153.49874 | 26294 ft | 379 kts | 0° |
| 2026-04-25 01:45 | -27.66292 | 153.49845 | 25927 ft | 377 kts | 0° |
| 2026-04-25 01:45 | -27.63680 | 153.49817 | 25560 ft | 375 kts | 0° |
| 2026-04-25 01:46 | -27.61079 | 153.49788 | 25198 ft | 373 kts | 0° |
| 2026-04-25 01:46 | -27.58490 | 153.49760 | 24832 ft | 371 kts | 0° |
| 2026-04-25 01:46 | -27.55914 | 153.49733 | 24472 ft | 369 kts | 0° |
| 2026-04-25 01:46 | -27.53343 | 153.49705 | 24116 ft | 368 kts | 0° |
| 2026-04-25 01:47 | -27.50783 | 153.49681 | 23710 ft | 368 kts | 1° |
| 2026-04-25 01:47 | -27.48229 | 153.49663 | 23308 ft | 366 kts | 1° |
| 2026-04-25 01:47 | -27.45686 | 153.49647 | 22934 ft | 364 kts | 1° |
| 2026-04-25 01:47 | -27.43190 | 153.49631 | 22577 ft | 361 kts | 1° |
| 2026-04-25 01:48 | -27.40682 | 153.49614 | 22229 ft | 359 kts | 1° |
| 2026-04-25 01:48 | -27.38192 | 153.49598 | 21878 ft | 356 kts | 1° |
| 2026-04-25 01:48 | -27.35720 | 153.49581 | 21535 ft | 354 kts | 1° |
| 2026-04-25 01:48 | -27.33262 | 153.49564 | 21189 ft | 351 kts | 1° |
| 2026-04-25 01:49 | -27.30825 | 153.49548 | 20854 ft | 349 kts | 2° |
| 2026-04-25 01:49 | -27.28391 | 153.49532 | 20511 ft | 347 kts | 1° |
| 2026-04-25 01:49 | -27.26007 | 153.49515 | 20181 ft | 345 kts | 2° |
| 2026-04-25 01:49 | -27.23611 | 153.49499 | 19848 ft | 343 kts | 2° |
| 2026-04-25 01:50 | -27.21226 | 153.49477 | 19521 ft | 342 kts | 2° |
| 2026-04-25 01:50 | -27.18852 | 153.49447 | 19191 ft | 340 kts | 2° |
| 2026-04-25 01:50 | -27.16485 | 153.49416 | 18862 ft | 339 kts | 2° |
| 2026-04-25 01:50 | -27.14130 | 153.49387 | 18530 ft | 338 kts | 2° |
| 2026-04-25 01:51 | -27.11781 | 153.49359 | 18156 ft | 337 kts | 2° |
| 2026-04-25 01:51 | -27.09440 | 153.49330 | 17800 ft | 335 kts | 2° |
| 2026-04-25 01:51 | -27.07117 | 153.49301 | 17463 ft | 333 kts | 2° |
| 2026-04-25 01:51 | -27.04810 | 153.49273 | 17133 ft | 331 kts | 2° |
| 2026-04-25 01:52 | -27.02537 | 153.49246 | 16813 ft | 329 kts | 2° |
| 2026-04-25 01:52 | -27.00254 | 153.49219 | 16488 ft | 326 kts | 2° |
| 2026-04-25 01:52 | -26.97987 | 153.49191 | 16169 ft | 324 kts | 3° |
| 2026-04-25 01:52 | -26.95728 | 153.49164 | 15854 ft | 322 kts | 2° |
| 2026-04-25 01:53 | -26.93484 | 153.49137 | 15540 ft | 321 kts | 3° |
| 2026-04-25 01:53 | -26.91260 | 153.49111 | 15229 ft | 319 kts | 3° |
| 2026-04-25 01:53 | -26.89075 | 153.49089 | 14952 ft | 317 kts | 3° |
| 2026-04-25 01:53 | -26.86884 | 153.49074 | 14720 ft | 318 kts | 4° |
| 2026-04-25 01:54 | -26.84668 | 153.49062 | 14487 ft | 319 kts | 4° |
| 2026-04-25 01:54 | -26.82440 | 153.49049 | 14263 ft | 320 kts | 4° |
| 2026-04-25 01:54 | -26.80224 | 153.49034 | 14033 ft | 316 kts | 4° |
| 2026-04-25 01:54 | -26.78032 | 153.49019 | 13706 ft | 315 kts | 4° |
| 2026-04-25 01:55 | -26.75848 | 153.49004 | 13365 ft | 313 kts | 4° |
| 2026-04-25 01:55 | -26.73668 | 153.48815 | 12979 ft | 319 kts | 348° |
| 2026-04-25 01:55 | -26.71632 | 153.47778 | 12568 ft | 325 kts | 331° |
| 2026-04-25 01:55 | -26.69712 | 153.46436 | 12189 ft | 325 kts | 329° |
| 2026-04-25 01:56 | -26.67811 | 153.45060 | 11862 ft | 324 kts | 329° |
| 2026-04-25 01:56 | -26.65944 | 153.43707 | 11529 ft | 323 kts | 329° |
| 2026-04-25 01:56 | -26.64057 | 153.42351 | 11207 ft | 323 kts | 330° |
| 2026-04-25 01:56 | -26.62155 | 153.40995 | 10832 ft | 324 kts | 330° |
| 2026-04-25 01:57 | -26.58330 | 153.38285 | 10119 ft | 323 kts | 330° |
| 2026-04-25 01:57 | -26.56448 | 153.36957 | 9882 ft | 314 kts | 330° |
| 2026-04-25 01:57 | -26.54633 | 153.35678 | 9531 ft | 310 kts | 330° |
| 2026-04-25 01:58 | -26.52807 | 153.34393 | 9153 ft | 308 kts | 330° |
| 2026-04-25 01:58 | -26.51004 | 153.33125 | 8823 ft | 304 kts | 330° |
| 2026-04-25 01:58 | -26.49222 | 153.31872 | 8514 ft | 300 kts | 330° |
| 2026-04-25 01:58 | -26.47487 | 153.30652 | 8228 ft | 296 kts | 330° |
| 2026-04-25 01:59 | -26.45775 | 153.29408 | 7957 ft | 292 kts | 324° |
| 2026-04-25 01:59 | -26.44294 | 153.27874 | 7715 ft | 289 kts | 315° |
| 2026-04-25 01:59 | -26.42930 | 153.26228 | 7486 ft | 289 kts | 313° |
| 2026-04-25 01:59 | -26.41563 | 153.24561 | 7265 ft | 292 kts | 314° |
| 2026-04-25 02:00 | -26.40166 | 153.22897 | 7028 ft | 295 kts | 314° |
| 2026-04-25 02:00 | -26.38744 | 153.21232 | 6787 ft | 296 kts | 315° |
| 2026-04-25 02:00 | -26.37321 | 153.19579 | 6534 ft | 295 kts | 315° |
| 2026-04-25 02:00 | -26.35954 | 153.17887 | 6262 ft | 294 kts | 303° |
| 2026-04-25 02:01 | -26.35201 | 153.15824 | 6037 ft | 290 kts | 278° |
| 2026-04-25 02:01 | -26.34922 | 153.13602 | 5790 ft | 288 kts | 274° |
| 2026-04-25 02:01 | -26.34671 | 153.11395 | 5559 ft | 286 kts | 275° |
| 2026-04-25 02:01 | -26.34414 | 153.09202 | 5308 ft | 285 kts | 275° |
| 2026-04-25 02:02 | -26.34156 | 153.07018 | 5081 ft | 281 kts | 272° |
| 2026-04-25 02:02 | -26.34387 | 153.04921 | 4824 ft | 267 kts | 244° |
| 2026-04-25 02:02 | -26.35280 | 153.03184 | 4621 ft | 252 kts | 228° |
| 2026-04-25 02:02 | -26.36294 | 153.01645 | 4427 ft | 247 kts | 227° |
| 2026-04-25 02:03 | -26.37347 | 153.00166 | 4220 ft | 236 kts | 215° |
| 2026-04-25 02:03 | -26.38674 | 152.99280 | 4067 ft | 213 kts | 197° |
| 2026-04-25 02:03 | -26.39996 | 152.98630 | 3897 ft | 201 kts | 196° |
| 2026-04-25 02:03 | -26.41240 | 152.98011 | 3679 ft | 192 kts | 196° |
| 2026-04-25 02:04 | -26.42421 | 152.97420 | 3514 ft | 179 kts | 195° |
| 2026-04-25 02:04 | -26.43528 | 152.96866 | 3410 ft | 171 kts | 195° |
| 2026-04-25 02:04 | -26.44639 | 152.96570 | 3225 ft | 158 kts | 161° |
| 2026-04-25 02:04 | -26.45587 | 152.97025 | 3119 ft | 145 kts | 150° |
| 2026-04-25 02:05 | -26.46433 | 152.97544 | 2933 ft | 137 kts | 145° |
| 2026-04-25 02:05 | -26.47231 | 152.98084 | 2768 ft | 132 kts | 144° |
| 2026-04-25 02:05 | -26.47993 | 152.98658 | 2584 ft | 133 kts | 143° |
| 2026-04-25 02:05 | -26.48745 | 152.99264 | 2413 ft | 132 kts | 141° |
| 2026-04-25 02:06 | -26.49465 | 152.99862 | 2205 ft | 121 kts | 141° |
| 2026-04-25 02:06 | -26.50116 | 153.00415 | 1998 ft | 126 kts | 141° |
| 2026-04-25 02:06 | -26.50773 | 153.00971 | 1826 ft | 121 kts | 142° |
| 2026-04-25 02:06 | -26.51431 | 153.01532 | 1729 ft | 117 kts | 141° |
| 2026-04-25 02:07 | -26.52078 | 153.02092 | 1610 ft | 121 kts | 142° |
| 2026-04-25 02:07 | -26.52750 | 153.02669 | 1455 ft | 121 kts | 141° |
| 2026-04-25 02:07 | -26.53414 | 153.03239 | 1281 ft | 119 kts | 141° |
| 2026-04-25 02:07 | -26.54075 | 153.03803 | 1150 ft | 121 kts | 141° |
| 2026-04-25 02:08 | -26.54746 | 153.04382 | 960 ft | 119 kts | 141° |
| 2026-04-25 02:08 | -26.55389 | 153.04936 | 813 ft | 115 kts | 142° |
| 2026-04-25 02:08 | -26.55812 | 153.05298 | 679 ft | 115 kts | 143° |
| 2026-04-25 02:08 | -26.56606 | 153.06022 | 470 ft | 107 kts | 143° |
| 2026-04-25 02:09 | -26.57188 | 153.06496 | 353 ft | 100 kts | 145° |
| 2026-04-25 02:09 | -26.57745 | 153.06979 | 222 ft | 101 kts | 146° |
| 2026-04-25 02:09 | -26.58121 | 153.07300 | 122 ft | 104 kts | 148° |
| 2026-04-25 02:09 | -26.58694 | 153.07787 | 35 ft | 98 kts | 147° |
| 2026-04-25 02:10 | -26.59263 | 153.08268 | 22 ft | 51 kts | 143° |
| 2026-04-25 02:10 | -26.59419 | 153.08401 | 21 ft | 39 kts | 142° |
| 2026-04-25 02:10 | -26.59610 | 153.08563 | 23 ft | 30 kts | 143° |
| 2026-04-25 02:10 | -26.59772 | 153.08700 | 28 ft | 28 kts | 143° |
| 2026-04-25 02:11 | -26.59972 | 153.08869 | 27 ft | 26 kts | 142° |
| 2026-04-25 02:11 | -26.60066 | 153.08949 | 23 ft | 24 kts | 143° |
| 2026-04-25 02:11 | -26.60188 | 153.09053 | 21 ft | 18 kts | 142° |
| 2026-04-25 02:11 | -26.60262 | 153.09117 | 22 ft | 12 kts | 142° |
| 2026-04-25 02:12 | -26.60329 | 153.09172 | 22 ft | 12 kts | 153° |
| 2026-04-25 02:12 | -26.60408 | 153.09165 | 22 ft | 11 kts | 194° |
| 2026-04-25 02:12 | -26.60471 | 153.09143 | 24 ft | 9 kts | 210° |
| 2026-04-25 02:12 | -26.60514 | 153.09094 | 23 ft | 9 kts | 226° |
| 2026-04-25 02:13 | -26.60556 | 153.09064 | 24 ft | 7 kts | 195° |
| 2026-04-25 02:13 | -26.60582 | 153.09043 | 25 ft | 4 kts | 257° |
| 2026-04-25 02:13 | -26.60579 | 153.09015 | 23 ft | 4 kts | 282° |
| 2026-04-25 02:13 | -26.60574 | 153.08988 | 28 ft | 3 kts | 284° |
| 2026-04-25 02:14 | -26.60569 | 153.08965 | 25 ft | 2 kts | 284° |
| 2026-04-25 02:14 | -26.60567 | 153.08956 | 25 ft | 0 kts | 284° |